createdAt,value
2023-06-14T00:00:30.772Z,469.00
2023-06-14T00:01:30.828Z,471.00
2023-06-14T00:02:30.998Z,473.00
2023-06-14T00:03:30.965Z,473.00
2023-06-14T00:04:30.919Z,473.00
2023-06-14T00:05:30.895Z,472.00
2023-06-14T00:06:31.458Z,470.00
2023-06-14T00:07:31.011Z,470.00
2023-06-14T00:08:31.060Z,470.00
2023-06-14T00:09:31.137Z,470.00
2023-06-14T00:10:31.156Z,470.00
2023-06-14T00:11:31.456Z,470.00
2023-06-14T00:12:31.256Z,471.00
2023-06-14T00:13:31.336Z,471.00
2023-06-14T00:14:31.440Z,473.00
2023-06-14T00:15:31.410Z,469.00
2023-06-14T00:16:31.566Z,469.00
2023-06-14T00:17:31.573Z,470.00
2023-06-14T00:18:31.535Z,467.00
2023-06-14T00:19:31.588Z,466.00
2023-06-14T00:20:31.738Z,465.00
2023-06-14T00:21:31.997Z,464.00
2023-06-14T00:22:31.741Z,465.00
2023-06-14T00:23:31.793Z,466.00
2023-06-14T00:24:31.850Z,465.00
2023-06-14T00:25:31.861Z,466.00
2023-06-14T00:26:32.045Z,466.00
2023-06-14T00:27:31.865Z,465.00
2023-06-14T00:28:31.891Z,464.00
2023-06-14T00:29:31.944Z,463.00
2023-06-14T00:30:32.311Z,461.00
2023-06-14T00:31:32.458Z,462.00
2023-06-14T00:32:32.093Z,465.00
2023-06-14T00:33:32.085Z,466.00
2023-06-14T00:34:32.109Z,465.00
2023-06-14T00:35:32.098Z,465.00
2023-06-14T00:36:32.182Z,464.00
2023-06-14T00:37:32.217Z,465.00
2023-06-14T00:38:32.220Z,465.00
2023-06-14T00:39:32.295Z,466.00
2023-06-14T00:40:32.265Z,468.00
2023-06-14T00:41:32.305Z,468.00
2023-06-14T00:42:32.327Z,464.00
2023-06-14T00:43:32.401Z,463.00
2023-06-14T00:44:32.389Z,463.00
2023-06-14T00:45:32.423Z,463.00
2023-06-14T00:46:32.445Z,461.00
2023-06-14T00:47:32.509Z,461.00
2023-06-14T00:48:32.515Z,461.00
2023-06-14T00:49:32.506Z,459.00
2023-06-14T00:50:32.567Z,458.00
2023-06-14T00:51:32.975Z,460.00
2023-06-14T00:52:32.552Z,461.00
2023-06-14T00:53:32.576Z,458.00
2023-06-14T00:54:32.609Z,455.00
2023-06-14T00:55:32.598Z,457.00
2023-06-14T00:56:33.009Z,459.00
2023-06-14T00:57:32.694Z,458.00
2023-06-14T00:58:32.705Z,460.00
2023-06-14T00:59:32.710Z,459.00
2023-06-14T01:00:32.739Z,459.00
2023-06-14T01:01:32.997Z,457.00
2023-06-14T01:02:32.860Z,457.00
2023-06-14T01:03:32.999Z,456.00
2023-06-14T01:04:32.864Z,457.00
2023-06-14T01:05:32.866Z,459.00
2023-06-14T01:06:33.484Z,460.00
2023-06-14T01:07:32.913Z,459.00
2023-06-14T01:08:32.929Z,459.00
2023-06-14T01:09:32.952Z,460.00
2023-06-14T01:10:32.950Z,459.00
2023-06-14T01:11:33.466Z,457.00
2023-06-14T01:12:32.984Z,458.00
2023-06-14T01:13:33.023Z,459.00
2023-06-14T01:14:33.050Z,459.00
2023-06-14T01:15:33.095Z,459.00
2023-06-14T01:16:33.116Z,457.00
2023-06-14T01:17:33.189Z,457.00
2023-06-14T01:18:33.139Z,459.00
2023-06-14T01:19:33.110Z,460.00
2023-06-14T01:20:33.201Z,459.00
2023-06-14T01:21:33.210Z,460.00
2023-06-14T01:22:33.233Z,461.00
2023-06-14T01:23:33.270Z,460.00
2023-06-14T01:24:33.551Z,460.00
2023-06-14T01:25:33.348Z,460.00
2023-06-14T01:26:33.358Z,458.00
2023-06-14T01:27:33.397Z,458.00
2023-06-14T01:28:33.485Z,456.00
2023-06-14T01:29:33.581Z,454.00
2023-06-14T01:30:33.552Z,454.00
2023-06-14T01:31:33.608Z,454.00
2023-06-14T01:32:33.661Z,455.00
2023-06-14T01:33:33.684Z,456.00
2023-06-14T01:34:33.750Z,456.00
2023-06-14T01:35:33.741Z,457.00
2023-06-14T01:36:33.802Z,454.00
2023-06-14T01:37:33.844Z,456.00
2023-06-14T01:38:33.885Z,457.00
2023-06-14T01:39:33.935Z,461.00
2023-06-14T01:40:33.951Z,462.00
2023-06-14T01:41:33.976Z,463.00
2023-06-14T01:42:33.995Z,463.00
2023-06-14T01:43:34.035Z,463.00
2023-06-14T01:44:34.146Z,464.00
2023-06-14T01:45:34.123Z,465.00
2023-06-14T01:46:34.272Z,463.00
2023-06-14T01:47:34.256Z,464.00
2023-06-14T01:48:34.266Z,464.00
2023-06-14T01:49:34.263Z,460.00
2023-06-14T01:50:34.357Z,458.00
2023-06-14T01:51:34.376Z,456.00
2023-06-14T01:52:34.441Z,456.00
2023-06-14T01:53:34.490Z,458.00
2023-06-14T01:54:34.496Z,457.00
2023-06-14T01:55:34.513Z,461.00
2023-06-14T01:56:34.586Z,460.00
2023-06-14T01:57:34.639Z,460.00
2023-06-14T01:58:34.706Z,460.00
2023-06-14T01:59:34.720Z,458.00
2023-06-14T02:00:34.674Z,456.00
2023-06-14T02:01:34.749Z,455.00
2023-06-14T02:02:34.774Z,456.00
2023-06-14T02:03:34.745Z,458.00
2023-06-14T02:04:34.752Z,457.00
2023-06-14T02:05:34.840Z,454.00
2023-06-14T02:06:34.766Z,454.00
2023-06-14T02:07:34.866Z,455.00
2023-06-14T02:08:34.921Z,456.00
2023-06-14T02:09:34.980Z,454.00
2023-06-14T02:10:36.361Z,456.00
2023-06-14T02:11:35.017Z,457.00
2023-06-14T02:12:35.034Z,457.00
2023-06-14T02:13:35.099Z,458.00
2023-06-14T02:14:35.194Z,458.00
2023-06-14T02:15:35.482Z,455.00
2023-06-14T02:16:35.332Z,457.00
2023-06-14T02:17:35.263Z,456.00
2023-06-14T02:18:35.234Z,454.00
2023-06-14T02:19:35.243Z,454.00
2023-06-14T02:20:35.308Z,457.00
2023-06-14T02:21:35.333Z,456.00
2023-06-14T02:22:35.375Z,456.00
2023-06-14T02:23:35.832Z,456.00
2023-06-14T02:24:35.423Z,456.00
2023-06-14T02:25:35.537Z,458.00
2023-06-14T02:26:35.542Z,458.00
2023-06-14T02:27:35.521Z,459.00
2023-06-14T02:28:35.528Z,457.00
2023-06-14T02:29:35.588Z,456.00
2023-06-14T02:30:35.607Z,457.00
2023-06-14T02:31:35.624Z,459.00
2023-06-14T02:32:35.696Z,462.00
2023-06-14T02:33:35.656Z,459.00
2023-06-14T02:34:35.614Z,458.00
2023-06-14T02:35:35.644Z,460.00
2023-06-14T02:36:35.662Z,460.00
2023-06-14T02:37:35.634Z,459.00
2023-06-14T02:38:35.673Z,459.00
2023-06-14T02:39:35.705Z,460.00
2023-06-14T02:40:35.692Z,461.00
2023-06-14T02:41:35.739Z,463.00
2023-06-14T02:42:35.768Z,463.00
2023-06-14T02:43:35.806Z,461.00
2023-06-14T02:44:35.869Z,462.00
2023-06-14T02:45:35.935Z,462.00
2023-06-14T02:46:35.937Z,462.00
2023-06-14T02:47:36.032Z,461.00
2023-06-14T02:48:36.042Z,459.00
2023-06-14T02:49:36.066Z,458.00
2023-06-14T02:50:36.151Z,459.00
2023-06-14T02:51:36.177Z,459.00
2023-06-14T02:52:36.140Z,460.00
2023-06-14T02:53:36.167Z,461.00
2023-06-14T02:54:36.166Z,461.00
2023-06-14T02:55:36.161Z,465.00
2023-06-14T02:56:36.167Z,464.00
2023-06-14T02:57:36.158Z,464.00
2023-06-14T02:58:36.194Z,462.00
2023-06-14T02:59:36.273Z,462.00
2023-06-14T03:00:36.343Z,463.00
2023-06-14T03:01:36.380Z,461.00
2023-06-14T03:02:36.355Z,461.00
2023-06-14T03:03:36.375Z,459.00
2023-06-14T03:04:36.349Z,458.00
2023-06-14T03:05:36.341Z,460.00
2023-06-14T03:06:36.385Z,460.00
2023-06-14T03:07:36.392Z,463.00
2023-06-14T03:08:36.389Z,467.00
2023-06-14T03:09:36.433Z,467.00
2023-06-14T03:10:36.405Z,467.00
2023-06-14T03:11:36.477Z,466.00
2023-06-14T03:12:36.420Z,465.00
2023-06-14T03:13:36.487Z,464.00
2023-06-14T03:14:36.511Z,465.00
2023-06-14T03:15:36.494Z,464.00
2023-06-14T03:16:36.562Z,465.00
2023-06-14T03:17:36.592Z,465.00
2023-06-14T03:18:36.689Z,466.00
2023-06-14T03:19:36.507Z,465.00
2023-06-14T03:20:36.588Z,462.00
2023-06-14T03:21:36.618Z,464.00
2023-06-14T03:22:36.687Z,464.00
2023-06-14T03:23:36.723Z,460.00
2023-06-14T03:24:36.754Z,460.00
2023-06-14T03:25:36.752Z,459.00
2023-06-14T03:26:36.771Z,458.00
2023-06-14T03:27:36.745Z,458.00
2023-06-14T03:28:36.808Z,456.00
2023-06-14T03:29:36.792Z,454.00
2023-06-14T03:30:36.813Z,455.00
2023-06-14T03:31:36.876Z,458.00
2023-06-14T03:32:36.850Z,458.00
2023-06-14T03:33:36.828Z,458.00
2023-06-14T03:34:36.798Z,459.00
2023-06-14T03:35:36.835Z,458.00
2023-06-14T03:36:36.842Z,457.00
2023-06-14T03:37:36.821Z,459.00
2023-06-14T03:38:36.885Z,458.00
2023-06-14T03:39:36.828Z,456.00
2023-06-14T03:40:36.812Z,455.00
2023-06-14T03:41:36.821Z,453.00
2023-06-14T03:42:36.852Z,453.00
2023-06-14T03:43:36.948Z,454.00
2023-06-14T03:44:36.919Z,453.00
2023-06-14T03:45:36.981Z,453.00
2023-06-14T03:46:36.984Z,453.00
2023-06-14T03:47:37.039Z,455.00
2023-06-14T03:48:37.071Z,457.00
2023-06-14T03:49:37.047Z,456.00
2023-06-14T03:50:37.036Z,452.00
2023-06-14T03:51:37.017Z,454.00
2023-06-14T03:52:37.030Z,451.00
2023-06-14T03:53:40.006Z,453.00
2023-06-14T03:55:55.597Z,460.00
2023-06-14T03:56:38.255Z,457.00
2023-06-14T03:57:37.000Z,459.00
2023-06-14T03:58:36.991Z,459.00
2023-06-14T03:59:37.011Z,459.00
2023-06-14T04:00:37.004Z,456.00
2023-06-14T04:01:37.015Z,457.00
2023-06-14T04:02:37.044Z,456.00
2023-06-14T04:03:37.099Z,455.00
2023-06-14T04:04:36.981Z,456.00
2023-06-14T04:05:37.005Z,458.00
2023-06-14T04:06:36.939Z,459.00
2023-06-14T04:07:36.966Z,455.00
2023-06-14T04:08:36.900Z,457.00
2023-06-14T04:09:36.902Z,456.00
2023-06-14T04:10:36.916Z,455.00
2023-06-14T04:11:36.923Z,456.00
2023-06-14T04:12:36.896Z,455.00
2023-06-14T04:13:36.900Z,455.00
2023-06-14T04:14:36.893Z,456.00
2023-06-14T04:15:36.921Z,455.00
2023-06-14T04:16:36.981Z,452.00
2023-06-14T04:17:36.905Z,453.00
2023-06-14T04:18:36.903Z,454.00
2023-06-14T04:19:36.848Z,452.00
2023-06-14T04:20:36.844Z,451.00
2023-06-14T04:21:36.857Z,454.00
2023-06-14T04:22:36.864Z,454.00
2023-06-14T04:23:36.859Z,454.00
2023-06-14T04:24:36.804Z,453.00
2023-06-14T04:25:36.833Z,453.00
2023-06-14T04:26:36.827Z,455.00
2023-06-14T04:27:36.799Z,458.00
2023-06-14T04:28:36.792Z,462.00
2023-06-14T04:29:36.816Z,462.00
2023-06-14T04:30:36.787Z,462.00
2023-06-14T04:31:36.777Z,461.00
2023-06-14T04:32:36.859Z,463.00
2023-06-14T04:33:36.980Z,459.00
2023-06-14T04:34:36.766Z,459.00
2023-06-14T04:35:36.757Z,461.00
2023-06-14T04:36:36.764Z,462.00
2023-06-14T04:37:36.764Z,462.00
2023-06-14T04:38:36.754Z,466.00
2023-06-14T04:39:36.710Z,468.00
2023-06-14T04:40:36.716Z,465.00
2023-06-14T04:41:36.734Z,464.00
2023-06-14T04:42:36.704Z,462.00
2023-06-14T04:43:36.749Z,462.00
2023-06-14T04:44:36.779Z,464.00
2023-06-14T04:45:36.771Z,466.00
2023-06-14T04:46:36.891Z,467.00
2023-06-14T04:47:36.887Z,466.00
2023-06-14T04:48:36.818Z,466.00
2023-06-14T04:49:36.826Z,462.00
2023-06-14T04:50:36.843Z,462.00
2023-06-14T04:51:36.878Z,461.00
2023-06-14T04:52:36.859Z,460.00
2023-06-14T04:53:36.874Z,459.00
2023-06-14T04:54:37.897Z,460.00
2023-06-14T04:55:36.919Z,462.00
2023-06-14T04:56:36.895Z,463.00
2023-06-14T04:57:36.888Z,461.00
2023-06-14T04:58:36.890Z,458.00
2023-06-14T04:59:36.918Z,456.00
2023-06-14T05:00:36.923Z,458.00
2023-06-14T05:01:36.913Z,458.00
2023-06-14T05:02:37.003Z,460.00
2023-06-14T05:03:36.892Z,461.00
2023-06-14T05:04:36.873Z,462.00
2023-06-14T05:05:36.858Z,463.00
2023-06-14T05:06:36.886Z,462.00
2023-06-14T05:07:37.644Z,463.00
2023-06-14T05:08:36.901Z,464.00
2023-06-14T05:09:36.897Z,462.00
2023-06-14T05:10:36.904Z,460.00
2023-06-14T05:11:36.942Z,459.00
2023-06-14T05:12:36.914Z,459.00
2023-06-14T05:13:36.933Z,461.00
2023-06-14T05:14:36.946Z,463.00
2023-06-14T05:15:36.977Z,467.00
2023-06-14T05:16:36.941Z,467.00
2023-06-14T05:17:36.997Z,467.00
2023-06-14T05:18:36.915Z,466.00
2023-06-14T05:19:36.937Z,465.00
2023-06-14T05:20:36.948Z,463.00
2023-06-14T05:21:42.317Z,463.00
2023-06-14T05:22:37.937Z,464.00
2023-06-14T05:23:36.890Z,466.00
2023-06-14T05:24:36.896Z,468.00
2023-06-14T05:25:36.934Z,467.00
2023-06-14T05:26:36.883Z,464.00
2023-06-14T05:27:36.998Z,466.00
2023-06-14T05:28:36.859Z,465.00
2023-06-14T05:29:36.881Z,467.00
2023-06-14T05:30:36.847Z,468.00
2023-06-14T05:31:36.922Z,470.00
2023-06-14T05:32:36.878Z,469.00
2023-06-14T05:33:36.962Z,468.00
2023-06-14T05:34:36.840Z,469.00
2023-06-14T05:35:36.853Z,470.00
2023-06-14T05:36:36.825Z,468.00
2023-06-14T05:37:36.824Z,467.00
2023-06-14T05:38:36.814Z,466.00
2023-06-14T05:39:36.817Z,469.00
2023-06-14T05:40:36.792Z,471.00
2023-06-14T05:41:36.771Z,470.00
2023-06-14T05:42:36.771Z,472.00
2023-06-14T05:43:36.763Z,472.00
2023-06-14T05:44:36.765Z,471.00
2023-06-14T05:45:36.738Z,470.00
2023-06-14T05:46:37.111Z,468.00
2023-06-14T05:47:36.777Z,468.00
2023-06-14T05:48:36.749Z,467.00
2023-06-14T05:49:36.733Z,470.00
2023-06-14T05:50:36.725Z,473.00
2023-06-14T05:51:36.722Z,472.00
2023-06-14T05:52:36.681Z,476.00
2023-06-14T05:53:36.686Z,476.00
2023-06-14T05:54:36.703Z,477.00
2023-06-14T05:55:36.782Z,478.00
2023-06-14T05:56:36.735Z,480.00
2023-06-14T05:57:36.714Z,482.00
2023-06-14T05:58:36.657Z,482.00
2023-06-14T05:59:36.655Z,485.00
2023-06-14T06:00:36.656Z,486.00
2023-06-14T06:01:36.693Z,487.00
2023-06-14T06:02:36.743Z,486.00
2023-06-14T06:03:36.791Z,487.00
2023-06-14T06:04:36.689Z,487.00
2023-06-14T06:05:36.612Z,487.00
2023-06-14T06:06:37.096Z,487.00
2023-06-14T06:07:38.101Z,487.00
2023-06-14T06:08:36.591Z,490.00
2023-06-14T06:09:36.595Z,490.00
2023-06-14T06:10:36.585Z,495.00
2023-06-14T06:11:48.583Z,497.00
2023-06-14T06:12:37.568Z,498.00
2023-06-14T06:13:36.604Z,499.00
2023-06-14T06:14:36.533Z,500.00
2023-06-14T06:15:36.562Z,501.00
2023-06-14T06:16:36.548Z,500.00
2023-06-14T06:17:53.949Z,504.00
2023-06-14T06:18:37.617Z,517.00
2023-06-14T06:19:36.519Z,522.00
2023-06-14T06:20:36.529Z,522.00
2023-06-14T06:21:36.604Z,525.00
2023-06-14T06:22:36.476Z,522.00
2023-06-14T06:23:36.492Z,518.00
2023-06-14T06:24:36.560Z,512.00
2023-06-14T06:25:36.474Z,509.00
2023-06-14T06:26:36.478Z,518.00
2023-06-14T06:27:36.487Z,515.00
2023-06-14T06:28:36.454Z,509.00
2023-06-14T06:29:36.460Z,507.00
2023-06-14T06:30:36.434Z,508.00
2023-06-14T06:31:36.462Z,514.00
2023-06-14T06:32:36.477Z,509.00
2023-06-14T06:33:36.395Z,495.00
2023-06-14T06:34:36.422Z,496.00
2023-06-14T06:35:36.475Z,495.00
2023-06-14T06:36:36.490Z,494.00
2023-06-14T06:37:36.536Z,493.00
2023-06-14T06:38:36.583Z,500.00
2023-06-14T06:39:36.701Z,483.00
2023-06-14T06:40:36.704Z,478.00
2023-06-14T06:41:36.764Z,503.00
2023-06-14T06:42:36.767Z,484.00
2023-06-14T06:43:36.756Z,489.00
2023-06-14T06:44:36.794Z,486.00
2023-06-14T06:45:36.754Z,498.00
2023-06-14T06:46:36.859Z,491.00
2023-06-14T06:47:36.805Z,481.00
2023-06-14T06:48:36.789Z,486.00
2023-06-14T06:49:36.843Z,484.00
2023-06-14T06:50:36.821Z,483.00
2023-06-14T06:51:36.800Z,486.00
2023-06-14T06:52:36.779Z,513.00
2023-06-14T06:53:42.847Z,505.00
2023-06-14T06:54:37.788Z,503.00
2023-06-14T06:55:36.756Z,501.00
2023-06-14T06:56:36.813Z,504.00
2023-06-14T06:57:36.779Z,513.00
2023-06-14T06:58:36.758Z,517.00
2023-06-14T06:59:36.746Z,518.00
2023-06-14T07:00:36.731Z,535.00
2023-06-14T07:01:36.780Z,556.00
2023-06-14T07:02:36.718Z,567.00
2023-06-14T07:03:36.697Z,538.00
2023-06-14T07:04:36.728Z,523.00
2023-06-14T07:05:36.755Z,518.00
2023-06-14T07:06:36.707Z,509.00
2023-06-14T07:07:36.681Z,507.00
2023-06-14T07:08:36.720Z,500.00
2023-06-14T07:09:36.707Z,499.00
2023-06-14T07:10:36.658Z,492.00
2023-06-14T07:11:36.661Z,491.00
2023-06-14T07:12:36.680Z,490.00
2023-06-14T07:13:36.654Z,496.00
2023-06-14T07:14:36.655Z,501.00
2023-06-14T07:15:36.668Z,498.00
2023-06-14T07:16:37.153Z,488.00
2023-06-14T07:17:36.671Z,483.00
2023-06-14T07:18:36.663Z,478.00
2023-06-14T07:19:36.690Z,470.00
2023-06-14T07:20:36.693Z,479.00
2023-06-14T07:21:36.713Z,477.00
2023-06-14T07:22:36.753Z,480.00
2023-06-14T07:23:36.756Z,474.00
2023-06-14T07:24:36.829Z,476.00
2023-06-14T07:25:36.797Z,477.00
2023-06-14T07:26:36.784Z,477.00
2023-06-14T07:27:36.777Z,479.00
2023-06-14T07:28:36.804Z,478.00
2023-06-14T07:29:36.784Z,477.00
2023-06-14T07:30:36.798Z,477.00
2023-06-14T07:31:36.801Z,473.00
2023-06-14T07:32:36.817Z,472.00
2023-06-14T07:33:36.934Z,487.00
2023-06-14T07:34:36.869Z,484.00
2023-06-14T07:35:36.836Z,483.00
2023-06-14T07:36:36.852Z,472.00
2023-06-14T07:37:36.829Z,490.00
2023-06-14T07:38:36.846Z,521.00
2023-06-14T07:39:36.867Z,523.00
2023-06-14T07:40:36.841Z,531.00
2023-06-14T07:41:36.805Z,531.00
2023-06-14T07:42:36.831Z,544.00
2023-06-14T07:43:36.852Z,589.00
2023-06-14T07:44:36.834Z,576.00
2023-06-14T07:45:36.818Z,568.00
2023-06-14T07:46:36.825Z,586.00
2023-06-14T07:47:36.968Z,567.00
2023-06-14T07:48:36.939Z,545.00
2023-06-14T07:49:36.813Z,517.00
2023-06-14T07:50:36.826Z,529.00
2023-06-14T07:51:36.836Z,521.00
2023-06-14T07:52:36.867Z,557.00
2023-06-14T07:53:36.824Z,638.00
2023-06-14T07:54:36.842Z,609.00
2023-06-14T07:55:52.715Z,583.00
2023-06-14T07:56:37.818Z,555.00
2023-06-14T07:57:36.809Z,547.00
2023-06-14T07:58:36.829Z,553.00
2023-06-14T07:59:36.843Z,596.00
2023-06-14T08:00:36.840Z,627.00
2023-06-14T08:01:36.814Z,653.00
2023-06-14T08:02:36.903Z,655.00
2023-06-14T08:03:36.894Z,650.00
2023-06-14T08:04:36.788Z,642.00
2023-06-14T08:05:36.784Z,639.00
2023-06-14T08:06:36.784Z,645.00
2023-06-14T08:07:36.762Z,649.00
2023-06-14T08:08:36.772Z,652.00
2023-06-14T08:09:36.752Z,619.00
2023-06-14T08:10:36.766Z,593.00
2023-06-14T08:11:37.955Z,581.00
2023-06-14T08:12:36.748Z,571.00
2023-06-14T08:13:36.717Z,573.00
2023-06-14T08:14:36.739Z,574.00
2023-06-14T08:15:36.725Z,589.00
2023-06-14T08:16:36.924Z,599.00
2023-06-14T08:17:36.681Z,595.00
2023-06-14T08:18:36.733Z,586.00
2023-06-14T08:19:36.707Z,587.00
2023-06-14T08:20:36.688Z,600.00
2023-06-14T08:21:36.664Z,591.00
2023-06-14T08:22:36.660Z,601.00
2023-06-14T08:23:36.660Z,610.00
2023-06-14T08:24:36.627Z,618.00
2023-06-14T08:25:36.644Z,610.00
2023-06-14T08:26:36.643Z,598.00
2023-06-14T08:27:36.612Z,593.00
2023-06-14T08:28:36.613Z,583.00
2023-06-14T08:29:36.606Z,576.00
2023-06-14T08:30:36.596Z,582.00
2023-06-14T08:31:36.582Z,621.00
2023-06-14T08:32:36.711Z,619.00
2023-06-14T08:33:36.681Z,604.00
2023-06-14T08:34:37.098Z,587.00
2023-06-14T08:35:37.635Z,581.00
2023-06-14T08:36:36.614Z,575.00
2023-06-14T08:37:36.593Z,576.00
2023-06-14T08:38:36.588Z,589.00
2023-06-14T08:39:36.624Z,587.00
2023-06-14T08:40:36.603Z,590.00
2023-06-14T08:41:36.626Z,593.00
2023-06-14T08:42:36.658Z,600.00
2023-06-14T08:43:36.591Z,610.00
2023-06-14T08:44:36.577Z,633.00
2023-06-14T08:45:36.607Z,641.00
2023-06-14T08:46:36.634Z,610.00
2023-06-14T08:47:41.485Z,597.00
2023-06-14T08:48:37.603Z,592.00
2023-06-14T08:49:37.798Z,545.00
2023-06-14T08:50:36.898Z,547.00
2023-06-14T08:51:36.598Z,549.00
2023-06-14T08:52:36.575Z,548.00
2023-06-14T08:53:38.549Z,542.00
2023-06-14T08:54:36.625Z,539.00
2023-06-14T08:55:38.156Z,535.00
2023-06-14T08:56:36.628Z,531.00
2023-06-14T08:57:36.686Z,538.00
2023-06-14T08:58:36.725Z,534.00
2023-06-14T08:59:36.799Z,535.00
2023-06-14T09:00:36.836Z,546.00
2023-06-14T09:01:36.952Z,568.00
2023-06-14T09:02:36.980Z,573.00
2023-06-14T09:03:37.023Z,572.00
2023-06-14T09:04:37.027Z,578.00
2023-06-14T09:05:37.030Z,580.00
2023-06-14T09:06:37.006Z,582.00
2023-06-14T09:07:37.089Z,628.00
2023-06-14T09:08:37.094Z,638.00
2023-06-14T09:09:37.137Z,645.00
2023-06-14T09:10:37.245Z,645.00
2023-06-14T09:11:37.285Z,683.00
2023-06-14T09:12:37.304Z,703.00
2023-06-14T09:13:37.357Z,682.00
2023-06-14T09:14:37.354Z,666.00
2023-06-14T09:15:37.403Z,614.00
2023-06-14T09:16:37.532Z,590.00
2023-06-14T09:17:37.570Z,591.00
2023-06-14T09:18:37.603Z,604.00
2023-06-14T09:19:37.648Z,639.00
2023-06-14T09:20:37.711Z,648.00
2023-06-14T09:21:37.742Z,633.00
2023-06-14T09:22:37.837Z,607.00
2023-06-14T09:23:37.930Z,616.00
2023-06-14T09:24:37.948Z,654.00
2023-06-14T09:25:40.275Z,669.00
2023-06-14T09:26:38.174Z,680.00
2023-06-14T09:27:38.195Z,694.00
2023-06-14T09:28:38.223Z,698.00
2023-06-14T09:29:38.342Z,692.00
2023-06-14T09:30:38.304Z,636.00
2023-06-14T09:31:38.376Z,695.00
2023-06-14T09:32:38.397Z,675.00
2023-06-14T09:33:38.365Z,616.00
2023-06-14T09:34:38.416Z,558.00
2023-06-14T09:35:38.498Z,556.00
2023-06-14T09:36:38.525Z,636.00
2023-06-14T09:37:38.576Z,646.00
2023-06-14T09:38:38.625Z,651.00
2023-06-14T09:39:38.609Z,671.00
2023-06-14T09:40:38.667Z,668.00
2023-06-14T09:41:38.676Z,659.00
2023-06-14T09:42:38.706Z,681.00
2023-06-14T09:43:38.726Z,681.00
2023-06-14T09:44:38.719Z,657.00
2023-06-14T09:45:38.748Z,676.00
2023-06-14T09:46:38.894Z,737.00
2023-06-14T09:47:39.357Z,866.00
2023-06-14T09:48:38.908Z,927.00
2023-06-14T09:49:38.848Z,944.00
2023-06-14T09:50:38.822Z,992.00
2023-06-14T09:51:38.910Z,868.00
2023-06-14T09:52:39.166Z,925.00
2023-06-14T09:53:38.996Z,929.00
2023-06-14T09:54:39.066Z,935.00
2023-06-14T09:55:39.235Z,936.00
2023-06-14T09:56:39.126Z,955.00
2023-06-14T09:57:39.221Z,920.00
2023-06-14T09:58:39.262Z,856.00
2023-06-14T09:59:39.285Z,788.00
2023-06-14T10:00:39.323Z,783.00
2023-06-14T10:01:39.458Z,772.00
2023-06-14T10:02:39.467Z,748.00
2023-06-14T10:03:57.498Z,750.00
2023-06-14T10:04:40.453Z,745.00
2023-06-14T10:05:39.465Z,736.00
2023-06-14T10:06:39.407Z,718.00
2023-06-14T10:07:39.697Z,730.00
2023-06-14T10:08:39.414Z,735.00
2023-06-14T10:09:39.398Z,723.00
2023-06-14T10:10:39.407Z,717.00
2023-06-14T10:11:39.438Z,717.00
2023-06-14T10:12:39.392Z,691.00
2023-06-14T10:13:39.400Z,666.00
2023-06-14T10:14:39.458Z,665.00
2023-06-14T10:15:39.448Z,665.00
2023-06-14T10:16:39.603Z,661.00
2023-06-14T10:17:39.567Z,675.00
2023-06-14T10:18:39.592Z,664.00
2023-06-14T10:19:39.564Z,668.00
2023-06-14T10:20:39.650Z,668.00
2023-06-14T10:21:39.607Z,639.00
2023-06-14T10:22:39.662Z,650.00
2023-06-14T10:23:39.697Z,650.00
2023-06-14T10:24:39.867Z,647.00
2023-06-14T10:25:39.774Z,630.00
2023-06-14T10:26:39.846Z,613.00
2023-06-14T10:27:39.917Z,613.00
2023-06-14T10:28:39.927Z,610.00
2023-06-14T10:29:39.996Z,600.00
2023-06-14T10:30:40.004Z,600.00
2023-06-14T10:31:40.085Z,609.00
2023-06-14T10:32:40.153Z,614.00
2023-06-14T10:33:41.690Z,617.00
2023-06-14T10:34:40.261Z,613.00
2023-06-14T10:35:40.128Z,612.00
2023-06-14T10:36:40.093Z,615.00
2023-06-14T10:37:40.082Z,614.00
2023-06-14T10:38:40.096Z,613.00
2023-06-14T10:39:40.085Z,618.00
2023-06-14T10:40:40.052Z,627.00
2023-06-14T10:41:40.060Z,630.00
2023-06-14T10:42:40.063Z,633.00
2023-06-14T10:43:40.039Z,632.00
2023-06-14T10:44:40.080Z,642.00
2023-06-14T10:45:40.070Z,646.00
2023-06-14T10:46:40.037Z,733.00
2023-06-14T10:47:40.060Z,742.00
2023-06-14T10:48:40.049Z,733.00
2023-06-14T10:49:40.054Z,697.00
2023-06-14T10:50:40.027Z,704.00
2023-06-14T10:51:39.999Z,709.00
2023-06-14T10:52:40.021Z,705.00
2023-06-14T10:53:39.982Z,687.00
2023-06-14T10:54:39.977Z,663.00
2023-06-14T10:55:39.990Z,664.00
2023-06-14T10:56:39.952Z,662.00
2023-06-14T10:57:51.199Z,657.00
2023-06-14T10:58:41.414Z,652.00
2023-06-14T10:59:39.960Z,653.00
2023-06-14T11:00:40.062Z,641.00
2023-06-14T11:01:39.967Z,643.00
2023-06-14T11:02:39.987Z,633.00
2023-06-14T11:03:39.974Z,634.00
2023-06-14T11:04:39.913Z,631.00
2023-06-14T11:05:39.889Z,640.00
2023-06-14T11:06:39.909Z,644.00
2023-06-14T11:07:39.908Z,645.00
2023-06-14T11:08:39.871Z,668.00
2023-06-14T11:09:39.847Z,679.00
2023-06-14T11:10:39.843Z,681.00
2023-06-14T11:11:39.879Z,675.00
2023-06-14T11:12:40.037Z,661.00
2023-06-14T11:13:39.865Z,639.00
2023-06-14T11:14:39.875Z,633.00
2023-06-14T11:15:39.901Z,642.00
2023-06-14T11:16:39.887Z,643.00
2023-06-14T11:17:39.989Z,644.00
2023-06-14T11:18:39.903Z,637.00
2023-06-14T11:19:39.893Z,638.00
2023-06-14T11:20:39.967Z,640.00
2023-06-14T11:21:39.968Z,649.00
2023-06-14T11:22:39.978Z,655.00
2023-06-14T11:23:40.031Z,653.00
2023-06-14T11:24:39.998Z,658.00
2023-06-14T11:25:40.042Z,652.00
2023-06-14T11:26:40.019Z,634.00
2023-06-14T11:27:40.081Z,628.00
2023-06-14T11:28:40.036Z,598.00
2023-06-14T11:29:40.047Z,587.00
2023-06-14T11:30:40.041Z,598.00
2023-06-14T11:31:40.121Z,597.00
2023-06-14T11:32:40.192Z,592.00
2023-06-14T11:33:40.119Z,585.00
2023-06-14T11:34:40.174Z,580.00
2023-06-14T11:35:40.180Z,579.00
2023-06-14T11:36:40.207Z,575.00
2023-06-14T11:37:40.217Z,573.00
2023-06-14T11:38:40.233Z,579.00
2023-06-14T11:39:40.308Z,604.00
2023-06-14T11:40:40.306Z,619.00
2023-06-14T11:41:40.314Z,618.00
2023-06-14T11:42:40.309Z,598.00
2023-06-14T11:43:40.320Z,598.00
2023-06-14T11:44:40.324Z,590.00
2023-06-14T11:45:40.331Z,584.00
2023-06-14T11:46:40.351Z,584.00
2023-06-14T11:47:40.412Z,568.00
2023-06-14T11:48:40.372Z,555.00
2023-06-14T11:49:40.359Z,558.00
2023-06-14T11:50:40.372Z,549.00
2023-06-14T11:51:40.389Z,549.00
2023-06-14T11:52:40.393Z,549.00
2023-06-14T11:53:40.388Z,538.00
2023-06-14T11:54:40.434Z,534.00
2023-06-14T11:55:40.476Z,529.00
2023-06-14T11:56:40.462Z,521.00
2023-06-14T11:57:40.408Z,520.00
2023-06-14T11:58:40.415Z,524.00
2023-06-14T11:59:40.432Z,538.00
2023-06-14T12:00:40.439Z,538.00
2023-06-14T12:01:40.835Z,541.00
2023-06-14T12:02:40.519Z,538.00
2023-06-14T12:03:40.405Z,534.00
2023-06-14T12:04:40.464Z,529.00
2023-06-14T12:05:40.477Z,520.00
2023-06-14T12:06:40.668Z,516.00
2023-06-14T12:07:40.448Z,496.00
2023-06-14T12:08:40.481Z,493.00
2023-06-14T12:09:40.447Z,490.00
2023-06-14T12:10:40.512Z,488.00
2023-06-14T12:11:40.464Z,523.00
2023-06-14T12:12:40.435Z,530.00
2023-06-14T12:13:40.442Z,514.00
2023-06-14T12:14:40.487Z,505.00
2023-06-14T12:15:40.428Z,499.00
2023-06-14T12:16:40.492Z,499.00
2023-06-14T12:17:40.480Z,503.00
2023-06-14T12:18:40.423Z,510.00
2023-06-14T12:19:40.468Z,509.00
2023-06-14T12:20:40.418Z,509.00
2023-06-14T12:21:40.434Z,511.00
2023-06-14T12:22:40.476Z,502.00
2023-06-14T12:23:40.548Z,501.00
2023-06-14T12:24:40.486Z,495.00
2023-06-14T12:25:40.491Z,494.00
2023-06-14T12:26:40.515Z,495.00
2023-06-14T12:27:40.536Z,499.00
2023-06-14T12:28:40.563Z,505.00
2023-06-14T12:29:40.545Z,494.00